createdAt,value
2018-07-04T00:00:37.604Z,13.78
2018-07-04T00:05:52.054Z,13.71
2018-07-04T00:11:06.464Z,13.55
2018-07-04T00:16:20.943Z,13.46
2018-07-04T00:21:35.464Z,13.35
2018-07-04T00:26:49.839Z,13.29
2018-07-04T00:32:04.256Z,13.20
2018-07-04T00:37:18.659Z,13.09
2018-07-04T00:42:34.024Z,13.02
2018-07-04T00:47:48.587Z,13.03
2018-07-04T00:53:02.902Z,12.95
2018-07-04T00:58:17.362Z,12.94
2018-07-04T01:03:31.794Z,12.80
2018-07-04T01:08:46.202Z,12.70
2018-07-04T01:14:00.777Z,12.64
2018-07-04T01:19:15.241Z,12.59
2018-07-04T01:24:29.768Z,12.54
2018-07-04T01:29:44.222Z,12.48
2018-07-04T01:34:58.775Z,12.41
2018-07-04T01:40:13.146Z,12.36
2018-07-04T01:45:27.579Z,12.28
2018-07-04T01:50:42.184Z,12.20
2018-07-04T01:55:56.557Z,12.14
2018-07-04T02:01:10.966Z,12.06
2018-07-04T02:06:25.381Z,12.03
2018-07-04T02:11:39.834Z,11.95
2018-07-04T02:16:54.297Z,11.91
2018-07-04T02:22:08.663Z,11.74
2018-07-04T02:27:23.164Z,11.79
2018-07-04T02:32:37.563Z,11.68
2018-07-04T02:37:51.995Z,11.63
2018-07-04T02:43:06.559Z,11.54
2018-07-04T02:48:21.099Z,11.58
2018-07-04T02:53:35.666Z,11.73
2018-07-04T02:58:50.018Z,11.84
2018-07-04T03:04:04.342Z,11.61
2018-07-04T03:09:18.952Z,11.49
2018-07-04T03:14:33.382Z,11.44
2018-07-04T03:19:47.855Z,11.38
2018-07-04T03:25:02.280Z,11.34
2018-07-04T03:30:16.715Z,11.38
2018-07-04T03:35:31.159Z,11.41
2018-07-04T03:40:45.602Z,11.49
2018-07-04T03:46:00.074Z,11.64
2018-07-04T03:51:14.549Z,11.78
2018-07-04T03:56:29.005Z,11.90
2018-07-04T04:01:43.541Z,12.08
2018-07-04T04:06:57.968Z,12.24
2018-07-04T04:12:12.447Z,12.47
2018-07-04T04:17:26.907Z,12.72
2018-07-04T04:22:41.353Z,13.01
2018-07-04T04:27:55.852Z,13.69
2018-07-04T04:33:10.122Z,21.57
2018-07-04T04:38:24.535Z,27.36
2018-07-04T04:43:38.943Z,30.23
2018-07-04T04:48:53.409Z,32.68
2018-07-04T04:54:07.769Z,33.56
2018-07-04T04:59:22.643Z,33.73
2018-07-04T05:04:37.078Z,35.07
2018-07-04T05:09:51.613Z,34.31
2018-07-04T05:15:05.974Z,35.40
2018-07-04T05:20:20.440Z,36.33
2018-07-04T05:25:34.823Z,35.91
2018-07-04T05:30:49.155Z,38.56
2018-07-04T05:36:03.571Z,38.35
2018-07-04T05:41:18.016Z,39.82
2018-07-04T05:46:32.322Z,39.57
2018-07-04T05:51:46.888Z,39.56
2018-07-04T05:57:01.094Z,37.56
2018-07-04T06:02:15.428Z,40.05
2018-07-04T06:07:29.702Z,40.58
2018-07-04T06:12:44.131Z,39.71
2018-07-04T06:17:59.106Z,40.56
2018-07-04T06:23:13.504Z,38.01
2018-07-04T06:28:28.010Z,37.27
2018-07-04T06:33:42.521Z,40.13
2018-07-04T06:38:44.416Z,40.63
2018-07-04T06:43:46.431Z,41.11
2018-07-04T06:48:48.341Z,40.73
2018-07-04T06:53:50.286Z,41.68
2018-07-04T06:58:52.216Z,41.89
2018-07-04T07:04:06.497Z,43.47
2018-07-04T07:09:20.944Z,41.50
2018-07-04T07:14:35.400Z,41.74
2018-07-04T07:19:49.762Z,41.91
2018-07-04T07:25:04.187Z,42.30
2018-07-04T07:30:18.932Z,40.66
2018-07-04T07:35:33.335Z,41.94
2018-07-04T07:40:47.515Z,41.38
2018-07-04T07:46:01.922Z,41.32
2018-07-04T07:51:16.322Z,42.00
2018-07-04T07:56:30.819Z,41.67
2018-07-04T08:01:45.095Z,39.86
2018-07-04T08:06:59.631Z,41.45
2018-07-04T08:12:13.983Z,40.07
2018-07-04T08:17:28.415Z,41.74
2018-07-04T08:22:42.817Z,41.83
2018-07-04T08:27:57.236Z,42.35
2018-07-04T08:33:11.485Z,40.76
2018-07-04T08:38:25.903Z,40.78
2018-07-04T08:43:40.362Z,40.54
2018-07-04T08:48:54.706Z,38.92
2018-07-04T08:54:09.161Z,38.51
2018-07-04T08:59:23.574Z,39.97
2018-07-04T09:04:37.941Z,38.91
2018-07-04T09:09:52.270Z,39.47
2018-07-04T09:15:06.707Z,37.60
2018-07-04T09:20:21.097Z,38.86
2018-07-04T09:25:35.673Z,37.83
2018-07-04T09:30:50.083Z,38.99
2018-07-04T09:36:04.467Z,40.01
2018-07-04T09:41:18.843Z,38.33
2018-07-04T09:46:33.251Z,37.80
2018-07-04T09:51:47.777Z,37.92
2018-07-04T09:57:02.057Z,37.67
2018-07-04T10:02:16.495Z,38.33
2018-07-04T10:07:30.926Z,36.61
2018-07-04T10:12:45.369Z,36.79
2018-07-04T10:17:59.831Z,37.14
2018-07-04T10:23:14.273Z,36.94
2018-07-04T10:28:28.649Z,35.83
2018-07-04T10:33:43.047Z,35.70
2018-07-04T10:38:57.496Z,35.91
2018-07-04T10:44:12.009Z,35.10
2018-07-04T10:49:26.384Z,34.16
2018-07-04T10:54:40.736Z,34.44
2018-07-04T10:59:55.066Z,35.16
2018-07-04T11:05:09.530Z,34.69
2018-07-04T11:10:23.890Z,34.28
2018-07-04T11:15:38.245Z,34.22
2018-07-04T11:20:52.642Z,34.13
2018-07-04T11:26:06.897Z,33.27
2018-07-04T11:31:21.376Z,33.13
2018-07-04T11:36:35.916Z,33.64
2018-07-04T11:41:50.185Z,34.42
2018-07-04T11:46:52.133Z,33.66
2018-07-04T11:51:54.083Z,33.97
2018-07-04T11:56:56.095Z,33.74
2018-07-04T12:01:58.003Z,33.35
2018-07-04T12:07:00.794Z,32.38
2018-07-04T12:12:02.760Z,33.27
2018-07-04T12:17:04.747Z,33.99
2018-07-04T12:22:07.126Z,33.90
2018-07-04T12:27:09.042Z,33.08
2018-07-04T12:32:10.985Z,33.37
2018-07-04T12:37:12.951Z,32.44
2018-07-04T12:42:15.027Z,33.13
2018-07-04T12:47:16.994Z,34.28
2018-07-04T12:52:18.882Z,34.52
2018-07-04T12:57:33.256Z,33.77
2018-07-04T13:02:47.626Z,33.81
2018-07-04T13:08:02.127Z,34.58
2018-07-04T13:13:16.586Z,34.04
2018-07-04T13:18:31.236Z,34.58
2018-07-04T13:23:45.874Z,34.03
2018-07-04T13:29:00.102Z,34.71
2018-07-04T13:34:14.548Z,34.26
2018-07-04T13:39:29.062Z,34.61
2018-07-04T13:44:43.390Z,34.49
2018-07-04T13:49:57.969Z,34.40
2018-07-04T13:55:12.322Z,34.44
2018-07-04T14:00:26.828Z,34.30
2018-07-04T14:05:41.324Z,34.33
2018-07-04T14:10:55.644Z,33.91
2018-07-04T14:16:10.165Z,33.90
2018-07-04T14:21:24.610Z,34.04
2018-07-04T14:26:39.202Z,33.89
2018-07-04T14:31:53.560Z,33.79
2018-07-04T14:37:07.927Z,34.29
2018-07-04T14:42:22.310Z,34.10
2018-07-04T14:47:36.693Z,34.25
2018-07-04T14:52:51.209Z,35.19
2018-07-04T14:58:05.419Z,34.44
2018-07-04T15:03:19.831Z,34.93
2018-07-04T15:08:34.274Z,35.12
2018-07-04T15:13:48.593Z,35.56
2018-07-04T15:19:03.111Z,34.30
2018-07-04T15:24:17.405Z,34.23
2018-07-04T15:29:31.799Z,35.06
2018-07-04T15:34:46.164Z,34.91
2018-07-04T15:40:00.655Z,34.98
2018-07-04T15:45:14.991Z,34.63
2018-07-04T15:50:29.516Z,34.50
2018-07-04T15:55:43.956Z,33.82
2018-07-04T16:00:58.388Z,33.52
2018-07-04T16:06:13.007Z,34.34
2018-07-04T16:11:27.284Z,34.73
2018-07-04T16:16:41.713Z,33.81
2018-07-04T16:21:56.119Z,34.25
2018-07-04T16:27:10.517Z,33.87
2018-07-04T16:32:25.042Z,33.61
2018-07-04T16:37:39.468Z,33.45
2018-07-04T16:42:53.793Z,33.64
2018-07-04T16:48:08.181Z,33.99
2018-07-04T16:53:22.654Z,33.93
2018-07-04T16:58:37.046Z,33.88
2018-07-04T17:03:51.558Z,33.69
2018-07-04T17:09:05.927Z,33.88
2018-07-04T17:14:20.358Z,33.19
2018-07-04T17:19:34.750Z,33.36
2018-07-04T17:24:49.100Z,32.82
2018-07-04T17:30:03.514Z,32.37
2018-07-04T17:35:17.938Z,32.66
2018-07-04T17:40:32.426Z,32.52
2018-07-04T17:45:46.878Z,32.07
2018-07-04T17:51:01.500Z,32.36
2018-07-04T17:56:15.949Z,31.97
2018-07-04T18:01:30.598Z,31.40
2018-07-04T18:06:45.059Z,31.00
2018-07-04T18:11:59.596Z,30.48
2018-07-04T18:17:13.911Z,30.64
2018-07-04T18:22:28.263Z,30.46
2018-07-04T18:27:42.682Z,30.14
2018-07-04T18:32:57.085Z,29.83
2018-07-04T18:38:11.486Z,29.37
2018-07-04T18:43:25.922Z,28.96
2018-07-04T18:48:40.259Z,28.57
2018-07-04T18:53:54.707Z,28.09
2018-07-04T18:59:09.360Z,27.56
2018-07-04T19:04:23.773Z,27.33
2018-07-04T19:09:38.315Z,27.13
2018-07-04T19:14:53.863Z,27.00
2018-07-04T19:20:08.657Z,26.89
2018-07-04T19:25:22.970Z,26.60
2018-07-04T19:30:37.379Z,26.39
2018-07-04T19:35:51.769Z,26.19
2018-07-04T19:41:06.165Z,25.79
2018-07-04T19:46:20.899Z,25.30
2018-07-04T19:51:36.332Z,24.84
2018-07-04T19:56:50.661Z,24.34
2018-07-04T20:02:04.911Z,24.11
2018-07-04T20:07:20.071Z,23.81
2018-07-04T20:12:36.356Z,23.61
2018-07-04T20:17:54.471Z,23.45
2018-07-04T20:23:10.716Z,23.25
2018-07-04T20:28:26.713Z,22.82
2018-07-04T20:33:42.301Z,22.26
2018-07-04T20:38:57.458Z,21.77
2018-07-04T20:44:11.853Z,21.33
2018-07-04T20:49:26.449Z,20.98
2018-07-04T20:54:40.819Z,20.63
2018-07-04T20:59:55.318Z,20.29
2018-07-04T21:05:09.578Z,20.05
2018-07-04T21:10:23.962Z,19.80
2018-07-04T21:15:38.405Z,19.58
2018-07-04T21:20:52.813Z,19.29
2018-07-04T21:26:07.541Z,19.11
2018-07-04T21:31:21.901Z,18.97
2018-07-04T21:36:36.315Z,18.78
2018-07-04T21:41:50.595Z,18.58
2018-07-04T21:47:04.997Z,18.34
2018-07-04T21:52:19.637Z,18.23
2018-07-04T21:57:34.171Z,18.09
2018-07-04T22:02:48.537Z,17.88
2018-07-04T22:08:03.039Z,17.77
2018-07-04T22:13:17.504Z,17.64
2018-07-04T22:18:31.960Z,17.43
2018-07-04T22:23:46.336Z,17.41
2018-07-04T22:29:00.756Z,17.36
2018-07-04T22:34:15.289Z,17.15
2018-07-04T22:39:29.863Z,17.03
2018-07-04T22:44:44.364Z,16.98
2018-07-04T22:49:58.836Z,16.96
2018-07-04T22:55:13.170Z,16.69
2018-07-04T23:00:27.549Z,16.55
2018-07-04T23:05:41.919Z,16.43
2018-07-04T23:10:56.393Z,16.40
2018-07-04T23:16:10.789Z,16.28
2018-07-04T23:21:25.210Z,16.20
2018-07-04T23:26:39.594Z,16.14
2018-07-04T23:31:54.002Z,16.35
2018-07-04T23:37:08.519Z,16.29
2018-07-04T23:42:22.862Z,16.19
2018-07-04T23:47:37.270Z,16.06
2018-07-04T23:52:51.694Z,16.03
2018-07-04T23:58:05.979Z,16.00
